sensor_id;sensor_type;location;lat;lon;timestamp;P1;durP1;ratioP1;P2;durP2;ratioP2
16262;SDS011;8239;48.594;8.598;2022-07-23T00:01:20;6.47;;;5.88;;
16262;SDS011;8239;48.594;8.598;2022-07-23T00:03:47;7.80;;;5.85;;
16262;SDS011;8239;48.594;8.598;2022-07-23T00:06:14;6.25;;;5.65;;
16262;SDS011;8239;48.594;8.598;2022-07-23T00:08:41;6.60;;;6.00;;
16262;SDS011;8239;48.594;8.598;2022-07-23T00:11:10;6.55;;;6.05;;
16262;SDS011;8239;48.594;8.598;2022-07-23T00:13:37;6.20;;;5.60;;
16262;SDS011;8239;48.594;8.598;2022-07-23T00:16:04;5.70;;;5.20;;
16262;SDS011;8239;48.594;8.598;2022-07-23T00:18:32;5.60;;;5.20;;
16262;SDS011;8239;48.594;8.598;2022-07-23T00:20:59;5.80;;;5.30;;
16262;SDS011;8239;48.594;8.598;2022-07-23T00:23:26;5.60;;;5.20;;
16262;SDS011;8239;48.594;8.598;2022-07-23T00:25:54;5.85;;;5.35;;
16262;SDS011;8239;48.594;8.598;2022-07-23T00:28:23;5.85;;;5.35;;
16262;SDS011;8239;48.594;8.598;2022-07-23T00:30:50;6.28;;;5.50;;
16262;SDS011;8239;48.594;8.598;2022-07-23T00:33:17;5.63;;;5.22;;
16262;SDS011;8239;48.594;8.598;2022-07-23T00:35:44;7.50;;;5.97;;
16262;SDS011;8239;48.594;8.598;2022-07-23T00:38:12;6.18;;;5.63;;
16262;SDS011;8239;48.594;8.598;2022-07-23T00:40:39;5.13;;;4.68;;
16262;SDS011;8239;48.594;8.598;2022-07-23T00:43:06;5.35;;;4.95;;
16262;SDS011;8239;48.594;8.598;2022-07-23T00:45:35;4.53;;;4.13;;
16262;SDS011;8239;48.594;8.598;2022-07-23T00:48:02;5.00;;;4.60;;
16262;SDS011;8239;48.594;8.598;2022-07-23T00:50:29;5.03;;;4.63;;
16262;SDS011;8239;48.594;8.598;2022-07-23T00:52:56;5.43;;;4.90;;
16262;SDS011;8239;48.594;8.598;2022-07-23T00:55:23;5.05;;;4.55;;
16262;SDS011;8239;48.594;8.598;2022-07-23T00:57:50;6.05;;;4.97;;
16262;SDS011;8239;48.594;8.598;2022-07-23T01:00:20;5.28;;;4.88;;
16262;SDS011;8239;48.594;8.598;2022-07-23T01:02:49;5.50;;;5.00;;
16262;SDS011;8239;48.594;8.598;2022-07-23T01:05:16;5.15;;;4.70;;
16262;SDS011;8239;48.594;8.598;2022-07-23T01:07:47;5.45;;;4.95;;
16262;SDS011;8239;48.594;8.598;2022-07-23T01:10:14;6.05;;;4.90;;
16262;SDS011;8239;48.594;8.598;2022-07-23T01:12:57;5.88;;;5.38;;
16262;SDS011;8239;48.594;8.598;2022-07-23T01:15:25;5.78;;;5.18;;
16262;SDS011;8239;48.594;8.598;2022-07-23T01:17:53;6.25;;;5.65;;
16262;SDS011;8239;48.594;8.598;2022-07-23T01:20:21;6.72;;;6.13;;
16262;SDS011;8239;48.594;8.598;2022-07-23T01:22:49;5.47;;;5.07;;
16262;SDS011;8239;48.594;8.598;2022-07-23T01:25:17;6.45;;;5.78;;
16262;SDS011;8239;48.594;8.598;2022-07-23T01:27:44;6.22;;;5.57;;
16262;SDS011;8239;48.594;8.598;2022-07-23T01:30:11;6.25;;;5.65;;
16262;SDS011;8239;48.594;8.598;2022-07-23T01:32:39;6.55;;;5.68;;
16262;SDS011;8239;48.594;8.598;2022-07-23T01:35:06;6.43;;;5.82;;
16262;SDS011;8239;48.594;8.598;2022-07-23T01:37:34;6.75;;;6.15;;
16262;SDS011;8239;48.594;8.598;2022-07-23T01:40:03;7.05;;;6.38;;
16262;SDS011;8239;48.594;8.598;2022-07-23T01:42:32;7.13;;;6.53;;
16262;SDS011;8239;48.594;8.598;2022-07-23T01:44:59;6.97;;;6.28;;
16262;SDS011;8239;48.594;8.598;2022-07-23T01:47:26;6.57;;;5.97;;
16262;SDS011;8239;48.594;8.598;2022-07-23T01:49:53;7.72;;;6.95;;
16262;SDS011;8239;48.594;8.598;2022-07-23T01:52:20;8.38;;;7.57;;
16262;SDS011;8239;48.594;8.598;2022-07-23T01:54:47;8.65;;;7.82;;
16262;SDS011;8239;48.594;8.598;2022-07-23T01:57:16;7.57;;;6.78;;
16262;SDS011;8239;48.594;8.598;2022-07-23T01:59:43;7.75;;;7.05;;
16262;SDS011;8239;48.594;8.598;2022-07-23T02:02:10;10.43;;;7.00;;
16262;SDS011;8239;48.594;8.598;2022-07-23T02:04:37;7.60;;;6.10;;
16262;SDS011;8239;48.594;8.598;2022-07-23T02:07:04;7.50;;;6.80;;
16262;SDS011;8239;48.594;8.598;2022-07-23T02:09:31;6.47;;;5.88;;
16262;SDS011;8239;48.594;8.598;2022-07-23T02:11:59;7.32;;;6.28;;
16262;SDS011;8239;48.594;8.598;2022-07-23T02:14:28;6.43;;;5.82;;
16262;SDS011;8239;48.594;8.598;2022-07-23T02:16:55;6.68;;;6.00;;
16262;SDS011;8239;48.594;8.598;2022-07-23T02:19:22;6.30;;;5.80;;
16262;SDS011;8239;48.594;8.598;2022-07-23T02:21:49;6.45;;;5.88;;
16262;SDS011;8239;48.594;8.598;2022-07-23T02:24:16;6.95;;;6.13;;
16262;SDS011;8239;48.594;8.598;2022-07-23T02:26:43;6.18;;;5.57;;
16262;SDS011;8239;48.594;8.598;2022-07-23T02:29:10;6.40;;;5.78;;
16262;SDS011;8239;48.594;8.598;2022-07-23T02:31:38;6.60;;;5.90;;
16262;SDS011;8239;48.594;8.598;2022-07-23T02:34:06;6.80;;;6.20;;
16262;SDS011;8239;48.594;8.598;2022-07-23T02:36:36;6.70;;;6.03;;
16262;SDS011;8239;48.594;8.598;2022-07-23T02:39:03;6.72;;;6.03;;
16262;SDS011;8239;48.594;8.598;2022-07-23T02:41:30;6.53;;;5.88;;
16262;SDS011;8239;48.594;8.598;2022-07-23T02:43:57;6.78;;;6.15;;
16262;SDS011;8239;48.594;8.598;2022-07-23T02:46:24;6.65;;;6.07;;
16262;SDS011;8239;48.594;8.598;2022-07-23T02:48:53;6.35;;;5.75;;
16262;SDS011;8239;48.594;8.598;2022-07-23T02:51:20;6.15;;;5.60;;
16262;SDS011;8239;48.594;8.598;2022-07-23T02:53:47;5.88;;;5.43;;
16262;SDS011;8239;48.594;8.598;2022-07-23T02:56:14;6.13;;;5.60;;
16262;SDS011;8239;48.594;8.598;2022-07-23T02:58:41;6.28;;;5.78;;
16262;SDS011;8239;48.594;8.598;2022-07-23T03:01:08;6.43;;;5.82;;
16262;SDS011;8239;48.594;8.598;2022-07-23T03:03:35;6.15;;;5.55;;
16262;SDS011;8239;48.594;8.598;2022-07-23T03:06:03;6.22;;;5.72;;
16262;SDS011;8239;48.594;8.598;2022-07-23T03:08:31;6.97;;;6.28;;
16262;SDS011;8239;48.594;8.598;2022-07-23T03:10:58;7.28;;;6.20;;
16262;SDS011;8239;48.594;8.598;2022-07-23T03:13:25;6.90;;;6.20;;
16262;SDS011;8239;48.594;8.598;2022-07-23T03:15:52;6.65;;;6.00;;
16262;SDS011;8239;48.594;8.598;2022-07-23T03:18:19;8.00;;;6.30;;
16262;SDS011;8239;48.594;8.598;2022-07-23T03:20:46;7.10;;;6.40;;
16262;SDS011;8239;48.594;8.598;2022-07-23T03:23:15;6.70;;;6.10;;
16262;SDS011;8239;48.594;8.598;2022-07-23T03:25:42;6.93;;;6.22;;
16262;SDS011;8239;48.594;8.598;2022-07-23T03:28:09;7.22;;;6.53;;
16262;SDS011;8239;48.594;8.598;2022-07-23T03:30:36;7.47;;;6.38;;
16262;SDS011;8239;48.594;8.598;2022-07-23T03:33:03;7.65;;;6.85;;
16262;SDS011;8239;48.594;8.598;2022-07-23T03:35:30;6.88;;;6.28;;
16262;SDS011;8239;48.594;8.598;2022-07-23T03:37:57;7.82;;;7.10;;
16262;SDS011;8239;48.594;8.598;2022-07-23T03:40:25;6.82;;;6.30;;
16262;SDS011;8239;48.594;8.598;2022-07-23T03:42:52;7.78;;;6.93;;
16262;SDS011;8239;48.594;8.598;2022-07-23T03:45:19;7.22;;;6.53;;
16262;SDS011;8239;48.594;8.598;2022-07-23T03:47:46;7.60;;;6.90;;
16262;SDS011;8239;48.594;8.598;2022-07-23T03:50:14;8.60;;;7.80;;
16262;SDS011;8239;48.594;8.598;2022-07-23T03:52:42;7.85;;;7.15;;
16262;SDS011;8239;48.594;8.598;2022-07-23T03:55:09;7.63;;;6.93;;
16262;SDS011;8239;48.594;8.598;2022-07-23T03:57:37;8.10;;;7.20;;
16262;SDS011;8239;48.594;8.598;2022-07-23T04:00:05;8.50;;;7.70;;
16262;SDS011;8239;48.594;8.598;2022-07-23T04:02:34;7.90;;;7.20;;
16262;SDS011;8239;48.594;8.598;2022-07-23T04:05:01;8.15;;;7.45;;
16262;SDS011;8239;48.594;8.598;2022-07-23T04:07:29;8.93;;;8.13;;
16262;SDS011;8239;48.594;8.598;2022-07-23T04:09:56;8.52;;;7.55;;
16262;SDS011;8239;48.594;8.598;2022-07-23T04:12:23;8.70;;;7.93;;
16262;SDS011;8239;48.594;8.598;2022-07-23T04:14:51;8.00;;;7.25;;
16262;SDS011;8239;48.594;8.598;2022-07-23T04:17:18;8.45;;;7.65;;
16262;SDS011;8239;48.594;8.598;2022-07-23T04:19:45;8.52;;;7.82;;
16262;SDS011;8239;48.594;8.598;2022-07-23T04:22:13;7.68;;;7.07;;
16262;SDS011;8239;48.594;8.598;2022-07-23T04:24:40;8.32;;;7.53;;
16262;SDS011;8239;48.594;8.598;2022-07-23T04:27:06;8.43;;;7.47;;
16262;SDS011;8239;48.594;8.598;2022-07-23T04:29:33;7.50;;;6.80;;
16262;SDS011;8239;48.594;8.598;2022-07-23T04:32:02;7.47;;;6.82;;
16262;SDS011;8239;48.594;8.598;2022-07-23T04:34:29;7.57;;;6.93;;
16262;SDS011;8239;48.594;8.598;2022-07-23T04:36:56;8.27;;;7.47;;
16262;SDS011;8239;48.594;8.598;2022-07-23T04:39:23;8.38;;;7.55;;
16262;SDS011;8239;48.594;8.598;2022-07-23T04:41:50;7.80;;;7.00;;
16262;SDS011;8239;48.594;8.598;2022-07-23T04:44:17;7.68;;;6.97;;
16262;SDS011;8239;48.594;8.598;2022-07-23T04:46:44;8.18;;;7.07;;
16262;SDS011;8239;48.594;8.598;2022-07-23T04:49:12;7.80;;;7.05;;
16262;SDS011;8239;48.594;8.598;2022-07-23T04:51:39;8.05;;;7.32;;
16262;SDS011;8239;48.594;8.598;2022-07-23T04:54:06;8.10;;;7.40;;
16262;SDS011;8239;48.594;8.598;2022-07-23T04:56:33;8.80;;;7.50;;
16262;SDS011;8239;48.594;8.598;2022-07-23T04:59:00;7.95;;;7.18;;
16262;SDS011;8239;48.594;8.598;2022-07-23T05:01:27;8.02;;;7.43;;
16262;SDS011;8239;48.594;8.598;2022-07-23T05:03:54;7.50;;;6.80;;
16262;SDS011;8239;48.594;8.598;2022-07-23T05:06:23;7.93;;;7.13;;
16262;SDS011;8239;48.594;8.598;2022-07-23T05:08:50;7.97;;;7.18;;
16262;SDS011;8239;48.594;8.598;2022-07-23T05:11:17;8.20;;;7.45;;
16262;SDS011;8239;48.594;8.598;2022-07-23T05:13:44;8.13;;;7.38;;
16262;SDS011;8239;48.594;8.598;2022-07-23T05:16:11;7.72;;;6.97;;
16262;SDS011;8239;48.594;8.598;2022-07-23T05:18:37;7.20;;;6.50;;
16262;SDS011;8239;48.594;8.598;2022-07-23T05:21:05;7.60;;;6.90;;
16262;SDS011;8239;48.594;8.598;2022-07-23T05:23:33;7.40;;;6.80;;
16262;SDS011;8239;48.594;8.598;2022-07-23T05:26:00;7.72;;;6.93;;
16262;SDS011;8239;48.594;8.598;2022-07-23T05:28:27;7.68;;;6.88;;
16262;SDS011;8239;48.594;8.598;2022-07-23T05:30:54;7.25;;;6.55;;
16262;SDS011;8239;48.594;8.598;2022-07-23T05:33:21;7.15;;;6.55;;
16262;SDS011;8239;48.594;8.598;2022-07-23T05:35:48;7.60;;;6.90;;
16262;SDS011;8239;48.594;8.598;2022-07-23T05:38:15;7.25;;;6.55;;
16262;SDS011;8239;48.594;8.598;2022-07-23T05:40:43;7.22;;;6.63;;
16262;SDS011;8239;48.594;8.598;2022-07-23T05:43:11;7.32;;;6.72;;
16262;SDS011;8239;48.594;8.598;2022-07-23T05:45:37;7.68;;;6.47;;
16262;SDS011;8239;48.594;8.598;2022-07-23T05:48:05;7.00;;;6.40;;
16262;SDS011;8239;48.594;8.598;2022-07-23T05:50:32;6.55;;;6.00;;
16262;SDS011;8239;48.594;8.598;2022-07-23T05:52:59;6.72;;;6.22;;
16262;SDS011;8239;48.594;8.598;2022-07-23T05:55:26;6.18;;;5.68;;
16262;SDS011;8239;48.594;8.598;2022-07-23T05:57:58;7.18;;;6.57;;
16262;SDS011;8239;48.594;8.598;2022-07-23T06:00:25;6.93;;;6.25;;
16262;SDS011;8239;48.594;8.598;2022-07-23T06:02:53;6.97;;;6.38;;
16262;SDS011;8239;48.594;8.598;2022-07-23T06:05:20;7.07;;;6.47;;
16262;SDS011;8239;48.594;8.598;2022-07-23T06:07:47;6.43;;;5.93;;
16262;SDS011;8239;48.594;8.598;2022-07-23T06:10:14;6.65;;;6.05;;
16262;SDS011;8239;48.594;8.598;2022-07-23T06:12:42;6.75;;;6.15;;
16262;SDS011;8239;48.594;8.598;2022-07-23T06:15:10;6.47;;;5.97;;
16262;SDS011;8239;48.594;8.598;2022-07-23T06:17:37;6.72;;;6.22;;
16262;SDS011;8239;48.594;8.598;2022-07-23T06:20:05;7.07;;;6.47;;
16262;SDS011;8239;48.594;8.598;2022-07-23T06:22:33;6.70;;;6.13;;
16262;SDS011;8239;48.594;8.598;2022-07-23T06:25:00;6.80;;;6.30;;
16262;SDS011;8239;48.594;8.598;2022-07-23T06:27:27;7.03;;;6.43;;
16262;SDS011;8239;48.594;8.598;2022-07-23T06:29:54;7.10;;;6.60;;
16262;SDS011;8239;48.594;8.598;2022-07-23T06:32:23;7.38;;;6.57;;
16262;SDS011;8239;48.594;8.598;2022-07-23T06:34:50;7.18;;;6.57;;
16262;SDS011;8239;48.594;8.598;2022-07-23T06:37:17;6.60;;;6.10;;
16262;SDS011;8239;48.594;8.598;2022-07-23T06:39:44;6.80;;;6.18;;
16262;SDS011;8239;48.594;8.598;2022-07-23T06:42:11;6.95;;;6.38;;
16262;SDS011;8239;48.594;8.598;2022-07-23T06:44:38;7.22;;;6.63;;
16262;SDS011;8239;48.594;8.598;2022-07-23T06:47:05;7.20;;;6.60;;
16262;SDS011;8239;48.594;8.598;2022-07-23T06:49:33;7.20;;;6.50;;
16262;SDS011;8239;48.594;8.598;2022-07-23T06:52:00;6.47;;;6.05;;
16262;SDS011;8239;48.594;8.598;2022-07-23T06:54:28;6.43;;;5.93;;
16262;SDS011;8239;48.594;8.598;2022-07-23T06:56:55;5.57;;;5.18;;
16262;SDS011;8239;48.594;8.598;2022-07-23T06:59:22;6.68;;;6.13;;
16262;SDS011;8239;48.594;8.598;2022-07-23T07:01:48;6.30;;;5.80;;
16262;SDS011;8239;48.594;8.598;2022-07-23T07:04:16;6.68;;;6.18;;
16262;SDS011;8239;48.594;8.598;2022-07-23T07:06:44;6.75;;;6.25;;
16262;SDS011;8239;48.594;8.598;2022-07-23T07:09:11;6.80;;;6.28;;
16262;SDS011;8239;48.594;8.598;2022-07-23T07:11:38;6.90;;;6.40;;
16262;SDS011;8239;48.594;8.598;2022-07-23T07:14:05;6.80;;;6.20;;
16262;SDS011;8239;48.594;8.598;2022-07-23T07:16:32;6.05;;;5.65;;
16262;SDS011;8239;48.594;8.598;2022-07-23T07:18:59;5.85;;;5.35;;
16262;SDS011;8239;48.594;8.598;2022-07-23T07:21:26;5.70;;;5.13;;
16262;SDS011;8239;48.594;8.598;2022-07-23T07:23:55;5.65;;;5.25;;
16262;SDS011;8239;48.594;8.598;2022-07-23T07:26:22;5.30;;;4.90;;
16262;SDS011;8239;48.594;8.598;2022-07-23T07:28:49;5.25;;;4.85;;
16262;SDS011;8239;48.594;8.598;2022-07-23T07:31:16;5.00;;;4.57;;
16262;SDS011;8239;48.594;8.598;2022-07-23T07:33:43;5.63;;;5.22;;
16262;SDS011;8239;48.594;8.598;2022-07-23T07:36:10;4.90;;;4.60;;
16262;SDS011;8239;48.594;8.598;2022-07-23T07:38:38;5.03;;;4.63;;
16262;SDS011;8239;48.594;8.598;2022-07-23T07:41:06;5.07;;;4.68;;
16262;SDS011;8239;48.594;8.598;2022-07-23T07:43:35;5.18;;;4.68;;
16262;SDS011;8239;48.594;8.598;2022-07-23T07:46:02;5.40;;;5.00;;
16262;SDS011;8239;48.594;8.598;2022-07-23T07:48:29;5.38;;;4.88;;
16262;SDS011;8239;48.594;8.598;2022-07-23T07:50:56;5.07;;;4.68;;
16262;SDS011;8239;48.594;8.598;2022-07-23T07:53:23;5.78;;;5.38;;
16262;SDS011;8239;48.594;8.598;2022-07-23T07:55:50;5.05;;;4.75;;
16262;SDS011;8239;48.594;8.598;2022-07-23T07:58:19;5.50;;;4.97;;
16262;SDS011;8239;48.594;8.598;2022-07-23T08:00:46;5.40;;;5.03;;
16262;SDS011;8239;48.594;8.598;2022-07-23T08:03:13;5.50;;;5.00;;
16262;SDS011;8239;48.594;8.598;2022-07-23T08:05:40;5.32;;;4.90;;
16262;SDS011;8239;48.594;8.598;2022-07-23T08:08:07;5.68;;;5.18;;
16262;SDS011;8239;48.594;8.598;2022-07-23T08:10:39;4.93;;;4.63;;
16262;SDS011;8239;48.594;8.598;2022-07-23T08:13:06;4.88;;;4.57;;
16262;SDS011;8239;48.594;8.598;2022-07-23T08:15:35;4.63;;;4.22;;
16262;SDS011;8239;48.594;8.598;2022-07-23T08:18:02;4.95;;;4.55;;
16262;SDS011;8239;48.594;8.598;2022-07-23T08:20:29;5.35;;;4.95;;
16262;SDS011;8239;48.594;8.598;2022-07-23T08:22:57;5.65;;;5.25;;
16262;SDS011;8239;48.594;8.598;2022-07-23T08:25:27;5.53;;;5.13;;
16262;SDS011;8239;48.594;8.598;2022-07-23T08:27:56;5.18;;;4.88;;
16262;SDS011;8239;48.594;8.598;2022-07-23T08:30:23;10.15;;;9.35;;
16262;SDS011;8239;48.594;8.598;2022-07-23T08:32:53;10.95;;;10.05;;
16262;SDS011;8239;48.594;8.598;2022-07-23T08:35:25;8.57;;;7.82;;
16262;SDS011;8239;48.594;8.598;2022-07-23T08:37:53;7.70;;;7.10;;
16262;SDS011;8239;48.594;8.598;2022-07-23T08:40:21;7.78;;;7.18;;
16262;SDS011;8239;48.594;8.598;2022-07-23T08:42:49;7.63;;;7.03;;
16262;SDS011;8239;48.594;8.598;2022-07-23T08:45:17;7.13;;;6.63;;
16262;SDS011;8239;48.594;8.598;2022-07-23T08:47:47;6.50;;;6.00;;
16262;SDS011;8239;48.594;8.598;2022-07-23T08:50:17;6.28;;;5.88;;
16262;SDS011;8239;48.594;8.598;2022-07-23T08:52:45;6.18;;;5.68;;
16262;SDS011;8239;48.594;8.598;2022-07-23T08:55:12;6.78;;;6.28;;
16262;SDS011;8239;48.594;8.598;2022-07-23T08:57:41;6.75;;;6.25;;
16262;SDS011;8239;48.594;8.598;2022-07-23T09:00:09;6.50;;;6.00;;
16262;SDS011;8239;48.594;8.598;2022-07-23T09:02:40;6.18;;;5.78;;
16262;SDS011;8239;48.594;8.598;2022-07-23T09:05:08;6.53;;;5.80;;
16262;SDS011;8239;48.594;8.598;2022-07-23T09:08:02;6.15;;;5.55;;
16262;SDS011;8239;48.594;8.598;2022-07-23T09:10:42;5.97;;;5.57;;
16262;SDS011;8239;48.594;8.598;2022-07-23T09:13:27;6.00;;;5.60;;
16262;SDS011;8239;48.594;8.598;2022-07-23T09:15:56;6.70;;;6.20;;
16262;SDS011;8239;48.594;8.598;2022-07-23T09:18:28;6.30;;;5.90;;
16262;SDS011;8239;48.594;8.598;2022-07-23T09:21:16;6.50;;;6.00;;
16262;SDS011;8239;48.594;8.598;2022-07-23T09:23:47;6.35;;;5.85;;
16262;SDS011;8239;48.594;8.598;2022-07-23T09:26:17;6.68;;;6.18;;
16262;SDS011;8239;48.594;8.598;2022-07-23T09:28:49;6.93;;;6.32;;
16262;SDS011;8239;48.594;8.598;2022-07-23T09:31:18;8.60;;;6.40;;
16262;SDS011;8239;48.594;8.598;2022-07-23T09:33:45;6.45;;;5.97;;
16262;SDS011;8239;48.594;8.598;2022-07-23T09:36:12;6.00;;;5.60;;
16262;SDS011;8239;48.594;8.598;2022-07-23T09:38:49;6.15;;;5.72;;
16262;SDS011;8239;48.594;8.598;2022-07-23T09:41:16;6.25;;;5.75;;
16262;SDS011;8239;48.594;8.598;2022-07-23T09:43:43;5.93;;;5.53;;
16262;SDS011;8239;48.594;8.598;2022-07-23T09:46:17;6.53;;;6.13;;
16262;SDS011;8239;48.594;8.598;2022-07-23T09:48:49;6.10;;;5.60;;
16262;SDS011;8239;48.594;8.598;2022-07-23T09:51:16;6.30;;;5.80;;
16262;SDS011;8239;48.594;8.598;2022-07-23T09:53:45;6.13;;;5.72;;
16262;SDS011;8239;48.594;8.598;2022-07-23T09:56:14;5.80;;;5.40;;
16262;SDS011;8239;48.594;8.598;2022-07-23T09:58:42;5.90;;;5.50;;
16262;SDS011;8239;48.594;8.598;2022-07-23T10:01:13;6.30;;;5.70;;
16262;SDS011;8239;48.594;8.598;2022-07-23T10:03:41;6.30;;;5.90;;
16262;SDS011;8239;48.594;8.598;2022-07-23T10:06:08;6.43;;;5.93;;
16262;SDS011;8239;48.594;8.598;2022-07-23T10:08:36;6.68;;;6.18;;
16262;SDS011;8239;48.594;8.598;2022-07-23T10:11:07;6.60;;;6.03;;
16262;SDS011;8239;48.594;8.598;2022-07-23T10:13:37;6.60;;;6.07;;
16262;SDS011;8239;48.594;8.598;2022-07-23T10:16:17;5.70;;;5.30;;
16262;SDS011;8239;48.594;8.598;2022-07-23T10:18:45;6.20;;;5.70;;
16262;SDS011;8239;48.594;8.598;2022-07-23T10:21:15;5.78;;;5.28;;
16262;SDS011;8239;48.594;8.598;2022-07-23T10:23:47;5.55;;;5.15;;
16262;SDS011;8239;48.594;8.598;2022-07-23T10:26:29;5.47;;;5.07;;
16262;SDS011;8239;48.594;8.598;2022-07-23T10:29:05;5.53;;;5.13;;
16262;SDS011;8239;48.594;8.598;2022-07-23T10:31:43;5.65;;;5.25;;
16262;SDS011;8239;48.594;8.598;2022-07-23T10:34:19;5.72;;;5.22;;
16262;SDS011;8239;48.594;8.598;2022-07-23T10:36:56;5.80;;;5.40;;
16262;SDS011;8239;48.594;8.598;2022-07-23T10:39:29;5.47;;;5.10;;
16262;SDS011;8239;48.594;8.598;2022-07-23T10:42:07;6.05;;;5.65;;
16262;SDS011;8239;48.594;8.598;2022-07-23T10:44:41;6.00;;;5.50;;
16262;SDS011;8239;48.594;8.598;2022-07-23T10:47:10;5.97;;;5.57;;
16262;SDS011;8239;48.594;8.598;2022-07-23T10:49:47;5.93;;;5.53;;
16262;SDS011;8239;48.594;8.598;2022-07-23T10:52:18;6.18;;;5.68;;
16262;SDS011;8239;48.594;8.598;2022-07-23T10:54:46;5.65;;;5.25;;
16262;SDS011;8239;48.594;8.598;2022-07-23T10:57:16;5.75;;;5.35;;
16262;SDS011;8239;48.594;8.598;2022-07-23T11:02:47;5.97;;;5.47;;
16262;SDS011;8239;48.594;8.598;2022-07-23T11:05:15;5.15;;;4.85;;
16262;SDS011;8239;48.594;8.598;2022-07-23T11:10:42;5.53;;;5.05;;
16262;SDS011;8239;48.594;8.598;2022-07-23T11:16:16;5.95;;;5.50;;
16262;SDS011;8239;48.594;8.598;2022-07-23T11:18:54;6.03;;;5.53;;
16262;SDS011;8239;48.594;8.598;2022-07-23T11:24:22;5.78;;;5.35;;
16262;SDS011;8239;48.594;8.598;2022-07-23T11:26:54;5.97;;;5.47;;
16262;SDS011;8239;48.594;8.598;2022-07-23T11:29:40;6.25;;;5.85;;
16262;SDS011;8239;48.594;8.598;2022-07-23T11:32:22;6.05;;;5.65;;
16262;SDS011;8239;48.594;8.598;2022-07-23T11:35:00;6.05;;;5.60;;
16262;SDS011;8239;48.594;8.598;2022-07-23T11:37:32;6.20;;;5.70;;
16262;SDS011;8239;48.594;8.598;2022-07-23T11:40:02;6.00;;;5.50;;
16262;SDS011;8239;48.594;8.598;2022-07-23T11:42:33;6.10;;;5.60;;
16262;SDS011;8239;48.594;8.598;2022-07-23T11:45:01;6.20;;;5.80;;
16262;SDS011;8239;48.594;8.598;2022-07-23T11:47:29;6.35;;;5.95;;
16262;SDS011;8239;48.594;8.598;2022-07-23T11:49:57;6.47;;;6.00;;
16262;SDS011;8239;48.594;8.598;2022-07-23T11:52:25;6.43;;;5.82;;
16262;SDS011;8239;48.594;8.598;2022-07-23T11:54:54;6.40;;;5.90;;
16262;SDS011;8239;48.594;8.598;2022-07-23T11:57:24;6.53;;;6.03;;
16262;SDS011;8239;48.594;8.598;2022-07-23T11:59:53;6.55;;;6.00;;
16262;SDS011;8239;48.594;8.598;2022-07-23T12:02:22;6.40;;;6.00;;
16262;SDS011;8239;48.594;8.598;2022-07-23T12:04:52;5.93;;;5.43;;
16262;SDS011;8239;48.594;8.598;2022-07-23T12:07:23;6.30;;;5.80;;
16262;SDS011;8239;48.594;8.598;2022-07-23T12:09:55;6.22;;;5.72;;
16262;SDS011;8239;48.594;8.598;2022-07-23T12:12:24;6.47;;;6.00;;
16262;SDS011;8239;48.594;8.598;2022-07-23T12:14:51;6.40;;;5.80;;
16262;SDS011;8239;48.594;8.598;2022-07-23T12:17:21;6.55;;;6.13;;
16262;SDS011;8239;48.594;8.598;2022-07-23T12:19:55;6.18;;;5.75;;
16262;SDS011;8239;48.594;8.598;2022-07-23T12:22:22;6.78;;;6.10;;
16262;SDS011;8239;48.594;8.598;2022-07-23T12:24:54;6.30;;;5.80;;
16262;SDS011;8239;48.594;8.598;2022-07-23T12:27:22;6.30;;;5.80;;
16262;SDS011;8239;48.594;8.598;2022-07-23T12:29:50;6.53;;;5.93;;
16262;SDS011;8239;48.594;8.598;2022-07-23T12:32:18;5.65;;;5.25;;
16262;SDS011;8239;48.594;8.598;2022-07-23T12:34:46;6.45;;;5.95;;
16262;SDS011;8239;48.594;8.598;2022-07-23T12:37:27;6.18;;;5.57;;
16262;SDS011;8239;48.594;8.598;2022-07-23T12:39:55;6.22;;;5.72;;
16262;SDS011;8239;48.594;8.598;2022-07-23T12:42:22;6.20;;;5.72;;
16262;SDS011;8239;48.594;8.598;2022-07-23T12:45:03;6.72;;;6.13;;
16262;SDS011;8239;48.594;8.598;2022-07-23T12:47:57;5.90;;;5.40;;
16262;SDS011;8239;48.594;8.598;2022-07-23T12:50:36;6.30;;;5.90;;
16262;SDS011;8239;48.594;8.598;2022-07-23T12:53:07;6.70;;;6.20;;
16262;SDS011;8239;48.594;8.598;2022-07-23T12:55:36;6.55;;;6.05;;
16262;SDS011;8239;48.594;8.598;2022-07-23T12:58:04;6.90;;;6.30;;
16262;SDS011;8239;48.594;8.598;2022-07-23T13:03:29;6.97;;;6.47;;
16262;SDS011;8239;48.594;8.598;2022-07-23T13:05:59;6.60;;;6.03;;
16262;SDS011;8239;48.594;8.598;2022-07-23T13:08:28;7.05;;;6.50;;
16262;SDS011;8239;48.594;8.598;2022-07-23T13:10:57;7.43;;;6.43;;
16262;SDS011;8239;48.594;8.598;2022-07-23T13:13:25;6.97;;;6.38;;
16262;SDS011;8239;48.594;8.598;2022-07-23T13:15:54;6.63;;;5.90;;
16262;SDS011;8239;48.594;8.598;2022-07-23T13:18:21;6.88;;;6.28;;
16262;SDS011;8239;48.594;8.598;2022-07-23T13:20:49;6.78;;;6.15;;
16262;SDS011;8239;48.594;8.598;2022-07-23T13:23:16;6.40;;;5.90;;
16262;SDS011;8239;48.594;8.598;2022-07-23T13:25:45;6.45;;;5.95;;
16262;SDS011;8239;48.594;8.598;2022-07-23T13:28:13;6.80;;;6.20;;
16262;SDS011;8239;48.594;8.598;2022-07-23T13:30:40;19.42;;;8.13;;
16262;SDS011;8239;48.594;8.598;2022-07-23T13:33:08;18.35;;;6.93;;
16262;SDS011;8239;48.594;8.598;2022-07-23T13:35:35;15.65;;;6.50;;
16262;SDS011;8239;48.594;8.598;2022-07-23T13:38:03;30.10;;;7.47;;
16262;SDS011;8239;48.594;8.598;2022-07-23T13:40:32;6.70;;;5.95;;
16262;SDS011;8239;48.594;8.598;2022-07-23T13:43:01;6.93;;;6.22;;
16262;SDS011;8239;48.594;8.598;2022-07-23T13:45:28;6.53;;;5.93;;
16262;SDS011;8239;48.594;8.598;2022-07-23T13:47:55;6.15;;;5.65;;
16262;SDS011;8239;48.594;8.598;2022-07-23T13:50:23;7.03;;;6.32;;
16262;SDS011;8239;48.594;8.598;2022-07-23T13:52:50;7.05;;;6.47;;
16262;SDS011;8239;48.594;8.598;2022-07-23T13:55:17;6.45;;;5.88;;
16262;SDS011;8239;48.594;8.598;2022-07-23T13:57:44;7.03;;;6.53;;
16262;SDS011;8239;48.594;8.598;2022-07-23T14:00:13;6.65;;;6.15;;
16262;SDS011;8239;48.594;8.598;2022-07-23T14:02:40;6.68;;;6.03;;
16262;SDS011;8239;48.594;8.598;2022-07-23T14:05:08;7.32;;;6.78;;
16262;SDS011;8239;48.594;8.598;2022-07-23T14:07:37;6.53;;;6.03;;
16262;SDS011;8239;48.594;8.598;2022-07-23T14:10:06;6.55;;;5.97;;
16262;SDS011;8239;48.594;8.598;2022-07-23T14:12:34;6.28;;;5.85;;
16262;SDS011;8239;48.594;8.598;2022-07-23T14:15:01;6.95;;;6.38;;
16262;SDS011;8239;48.594;8.598;2022-07-23T14:17:31;7.03;;;6.38;;
16262;SDS011;8239;48.594;8.598;2022-07-23T14:19:58;6.40;;;5.90;;
16262;SDS011;8239;48.594;8.598;2022-07-23T14:22:25;6.40;;;5.97;;
16262;SDS011;8239;48.594;8.598;2022-07-23T14:24:52;6.18;;;5.63;;
16262;SDS011;8239;48.594;8.598;2022-07-23T14:27:19;6.13;;;5.60;;
16262;SDS011;8239;48.594;8.598;2022-07-23T14:29:47;6.30;;;5.80;;
16262;SDS011;8239;48.594;8.598;2022-07-23T14:32:14;6.10;;;5.70;;
16262;SDS011;8239;48.594;8.598;2022-07-23T14:34:42;6.43;;;5.85;;
16262;SDS011;8239;48.594;8.598;2022-07-23T14:37:09;6.15;;;5.65;;
16262;SDS011;8239;48.594;8.598;2022-07-23T14:39:37;5.90;;;5.50;;
16262;SDS011;8239;48.594;8.598;2022-07-23T14:42:05;6.43;;;5.82;;
16262;SDS011;8239;48.594;8.598;2022-07-23T14:44:32;6.50;;;5.88;;
16262;SDS011;8239;48.594;8.598;2022-07-23T14:47:00;6.13;;;5.70;;
16262;SDS011;8239;48.594;8.598;2022-07-23T14:49:28;5.88;;;5.47;;
16262;SDS011;8239;48.594;8.598;2022-07-23T14:51:56;6.13;;;5.68;;
16262;SDS011;8239;48.594;8.598;2022-07-23T14:54:24;5.90;;;5.50;;
16262;SDS011;8239;48.594;8.598;2022-07-23T14:56:52;5.85;;;5.32;;
16262;SDS011;8239;48.594;8.598;2022-07-23T14:59:19;5.60;;;5.20;;
16262;SDS011;8239;48.594;8.598;2022-07-23T15:01:46;6.10;;;5.60;;
16262;SDS011;8239;48.594;8.598;2022-07-23T15:04:14;6.03;;;5.53;;
16262;SDS011;8239;48.594;8.598;2022-07-23T15:06:41;6.03;;;5.53;;
16262;SDS011;8239;48.594;8.598;2022-07-23T15:09:11;5.63;;;5.22;;
16262;SDS011;8239;48.594;8.598;2022-07-23T15:11:39;6.20;;;5.70;;
16262;SDS011;8239;48.594;8.598;2022-07-23T15:14:06;5.57;;;5.07;;
16262;SDS011;8239;48.594;8.598;2022-07-23T15:16:35;6.22;;;5.72;;
16262;SDS011;8239;48.594;8.598;2022-07-23T15:19:02;6.32;;;5.82;;
16262;SDS011;8239;48.594;8.598;2022-07-23T15:21:30;6.70;;;6.07;;
16262;SDS011;8239;48.594;8.598;2022-07-23T15:23:58;5.85;;;5.45;;